createdAt,value
2019-02-17T00:01:45.095Z,100356.66
2019-02-17T00:04:17.481Z,100353.94
2019-02-17T00:06:49.896Z,100354.80
2019-02-17T00:09:22.275Z,100354.98
2019-02-17T00:11:54.722Z,100359.02
2019-02-17T00:14:27.107Z,100357.36
2019-02-17T00:16:59.514Z,100353.56
2019-02-17T00:19:32.986Z,100357.01
2019-02-17T00:22:05.430Z,100353.75
2019-02-17T00:24:37.812Z,100351.58
2019-02-17T00:27:10.243Z,100351.27
2019-02-17T00:29:42.765Z,100353.11
2019-02-17T00:32:15.171Z,100356.89
2019-02-17T00:34:47.605Z,100361.70
2019-02-17T00:37:19.985Z,100356.63
2019-02-17T00:39:52.409Z,100360.15
2019-02-17T00:42:24.801Z,100357.69
2019-02-17T00:44:57.225Z,100357.11
2019-02-17T00:47:29.628Z,100358.67
2019-02-17T00:50:02.031Z,100361.45
2019-02-17T00:52:34.491Z,100359.88
2019-02-17T00:55:06.968Z,100359.63
2019-02-17T00:57:39.355Z,100361.92
2019-02-17T01:00:12.436Z,100359.85
2019-02-17T01:02:45.301Z,100360.83
2019-02-17T01:05:18.789Z,100356.39
2019-02-17T01:07:51.243Z,100358.23
2019-02-17T01:10:23.645Z,100362.63
2019-02-17T01:12:56.034Z,100359.40
2019-02-17T01:15:28.446Z,100361.53
2019-02-17T01:18:00.909Z,100358.39
2019-02-17T01:20:34.881Z,100360.13
2019-02-17T01:23:07.288Z,100358.69
2019-02-17T01:25:39.693Z,100348.24
2019-02-17T01:28:12.073Z,100343.49
2019-02-17T01:30:44.481Z,100345.58
2019-02-17T01:33:16.884Z,100341.75
2019-02-17T01:35:49.288Z,100345.39
2019-02-17T01:38:21.680Z,100345.69
2019-02-17T01:40:54.100Z,100349.44
2019-02-17T01:43:26.476Z,100344.05
2019-02-17T01:45:58.907Z,100342.37
2019-02-17T01:48:31.332Z,100337.75
2019-02-17T01:51:03.786Z,100340.12
2019-02-17T01:53:36.214Z,100340.31
2019-02-17T01:56:08.602Z,100336.13
2019-02-17T01:58:40.925Z,100336.33
2019-02-17T02:01:13.340Z,100326.87
2019-02-17T02:03:45.819Z,100328.61
2019-02-17T02:06:18.243Z,100327.55
2019-02-17T02:08:50.632Z,100318.37
2019-02-17T02:11:23.043Z,100319.67
2019-02-17T02:13:55.452Z,100316.20
2019-02-17T02:16:27.868Z,100311.91
2019-02-17T02:19:00.268Z,100310.75
2019-02-17T02:21:32.904Z,100307.11
2019-02-17T02:24:05.306Z,100302.02
2019-02-17T02:26:37.702Z,100300.60
2019-02-17T02:29:10.152Z,100298.14
2019-02-17T02:31:42.557Z,100307.87
2019-02-17T02:34:14.944Z,100306.98
2019-02-17T02:36:47.346Z,100308.18
2019-02-17T02:39:19.771Z,100309.69
2019-02-17T02:41:52.176Z,100309.95
2019-02-17T02:44:24.577Z,100306.67
2019-02-17T02:46:57.000Z,100308.94
2019-02-17T02:49:29.510Z,100309.92
2019-02-17T02:52:01.914Z,100303.58
2019-02-17T02:54:35.296Z,100303.80
2019-02-17T02:57:07.813Z,100296.29
2019-02-17T02:59:50.101Z,100300.47
2019-02-17T03:02:14.663Z,100302.31
2019-02-17T03:04:47.138Z,100307.16
2019-02-17T03:07:21.438Z,100302.91
2019-02-17T03:09:53.864Z,100305.88
2019-02-17T03:12:26.282Z,100297.61
2019-02-17T03:14:58.701Z,100300.52
2019-02-17T03:17:31.051Z,100298.84
2019-02-17T03:20:03.579Z,100299.46
2019-02-17T03:22:36.016Z,100305.08
2019-02-17T03:25:08.435Z,100303.97
2019-02-17T03:27:40.847Z,100306.37
2019-02-17T03:30:13.510Z,100310.48
2019-02-17T03:32:47.001Z,100305.52
2019-02-17T03:35:19.379Z,100305.47
2019-02-17T03:37:51.723Z,100303.00
2019-02-17T03:40:24.096Z,100305.54
2019-02-17T03:42:56.524Z,100304.99
2019-02-17T03:45:28.921Z,100306.80
2019-02-17T03:48:01.339Z,100304.19
2019-02-17T03:50:33.735Z,100308.89
2019-02-17T03:53:06.251Z,100310.36
2019-02-17T03:55:38.634Z,100311.37
2019-02-17T03:58:10.981Z,100316.67
2019-02-17T04:00:43.358Z,100314.39
2019-02-17T04:03:15.760Z,100312.63
2019-02-17T04:05:48.221Z,100314.05
2019-02-17T04:08:20.584Z,100318.42
2019-02-17T04:10:52.976Z,100320.05
2019-02-17T04:13:25.387Z,100319.91
2019-02-17T04:15:57.700Z,100316.24
2019-02-17T04:18:30.031Z,100322.23
2019-02-17T04:21:02.421Z,100324.03
2019-02-17T04:23:34.859Z,100319.88
2019-02-17T04:26:07.180Z,100321.93
2019-02-17T04:28:39.633Z,100322.71
2019-02-17T04:31:11.979Z,100322.52
2019-02-17T04:33:44.388Z,100318.98
2019-02-17T04:36:16.783Z,100325.45
2019-02-17T04:38:49.252Z,100326.16
2019-02-17T04:41:21.665Z,100321.47
2019-02-17T04:43:53.996Z,100322.17
2019-02-17T04:46:26.387Z,100323.11
2019-02-17T04:48:58.799Z,100323.14
2019-02-17T04:51:31.118Z,100317.06
2019-02-17T04:54:03.605Z,100319.05
2019-02-17T04:56:35.993Z,100320.15
2019-02-17T04:59:08.429Z,100314.00
2019-02-17T05:01:40.824Z,100313.79
2019-02-17T05:04:13.231Z,100309.81
2019-02-17T05:06:45.614Z,100308.25
2019-02-17T05:09:18.098Z,100306.20
2019-02-17T05:11:50.501Z,100303.94
2019-02-17T05:14:22.960Z,100302.47
2019-02-17T05:17:04.537Z,100297.89
2019-02-17T05:19:38.055Z,100300.51
2019-02-17T05:22:10.449Z,100303.84
2019-02-17T05:24:42.856Z,100301.39
2019-02-17T05:27:18.299Z,100294.25
2019-02-17T05:29:53.870Z,100297.75
2019-02-17T05:32:26.214Z,100299.98
2019-02-17T05:34:59.166Z,100295.38
2019-02-17T05:37:31.604Z,100293.48
2019-02-17T05:40:04.231Z,100296.61
2019-02-17T05:42:36.635Z,100297.63
2019-02-17T05:45:09.147Z,100300.47
2019-02-17T05:47:41.538Z,100298.94
2019-02-17T05:50:13.978Z,100297.65
2019-02-17T05:52:46.427Z,100301.01
2019-02-17T05:55:18.863Z,100298.31
2019-02-17T05:57:51.272Z,100302.81
2019-02-17T06:00:27.887Z,100299.87
2019-02-17T06:03:00.288Z,100300.29
2019-02-17T06:05:33.410Z,100304.06
2019-02-17T06:08:05.792Z,100309.06
2019-02-17T06:10:38.375Z,100306.25
2019-02-17T06:13:10.767Z,100311.09
2019-02-17T06:15:43.189Z,100309.17
2019-02-17T06:18:15.643Z,100307.89
2019-02-17T06:20:48.047Z,100311.48
2019-02-17T06:23:20.464Z,100314.39
2019-02-17T06:25:52.932Z,100312.25
2019-02-17T06:28:25.349Z,100311.69
2019-02-17T06:30:57.764Z,100315.09
2019-02-17T06:33:30.145Z,100322.80
2019-02-17T06:36:02.546Z,100325.42
2019-02-17T06:38:34.912Z,100332.27
2019-02-17T06:41:07.390Z,100328.52
2019-02-17T06:43:39.759Z,100331.66
2019-02-17T06:46:14.804Z,100334.42
2019-02-17T06:48:47.169Z,100334.30
2019-02-17T06:51:19.589Z,100333.48
2019-02-17T06:53:51.969Z,100336.64
2019-02-17T06:56:47.239Z,100331.97
2019-02-17T06:59:19.616Z,100331.05
2019-02-17T07:01:52.023Z,100337.91
2019-02-17T07:04:39.765Z,100338.11
2019-02-17T07:07:12.274Z,100339.84
2019-02-17T07:09:44.767Z,100337.51
2019-02-17T07:12:17.159Z,100337.60
2019-02-17T07:14:49.537Z,100335.45
2019-02-17T07:17:23.372Z,100332.81
2019-02-17T07:19:55.758Z,100333.27
2019-02-17T07:22:28.188Z,100330.72
2019-02-17T07:25:01.523Z,100325.52
2019-02-17T07:27:33.935Z,100324.75
2019-02-17T07:30:06.575Z,100321.47
2019-02-17T07:32:38.981Z,100324.76
2019-02-17T07:35:11.371Z,100326.22
2019-02-17T07:37:43.781Z,100326.33
2019-02-17T07:40:18.396Z,100323.58
2019-02-17T07:42:50.829Z,100333.20
2019-02-17T07:45:23.211Z,100331.91
2019-02-17T07:47:55.685Z,100326.09
2019-02-17T07:50:28.076Z,100321.98
2019-02-17T07:53:00.478Z,100318.53
2019-02-17T07:55:32.965Z,100320.26
2019-02-17T07:58:05.381Z,100317.12
2019-02-17T08:00:37.782Z,100319.44
2019-02-17T08:03:10.288Z,100324.95
2019-02-17T08:05:42.691Z,100317.80
2019-02-17T08:08:15.108Z,100316.75
2019-02-17T08:10:47.502Z,100318.81
2019-02-17T08:15:50.329Z,100312.73
2019-02-17T08:18:22.749Z,100308.27
2019-02-17T08:20:55.127Z,100306.48
2019-02-17T08:23:27.777Z,100312.98
2019-02-17T08:26:00.169Z,100313.92
2019-02-17T08:28:34.419Z,100313.89
2019-02-17T08:31:06.824Z,100313.92
2019-02-17T08:33:39.232Z,100311.65
2019-02-17T08:36:11.734Z,100312.18
2019-02-17T08:38:44.295Z,100310.16
2019-02-17T08:41:16.688Z,100310.39
2019-02-17T08:43:49.200Z,100306.88
2019-02-17T08:46:21.586Z,100307.69
2019-02-17T08:48:54.003Z,100308.20
2019-02-17T08:51:26.391Z,100299.88
2019-02-17T08:53:58.874Z,100302.21
2019-02-17T08:56:31.563Z,100299.56
2019-02-17T08:59:04.077Z,100297.48
2019-02-17T09:01:36.466Z,100295.25
2019-02-17T09:04:08.881Z,100293.31
2019-02-17T09:06:41.307Z,100288.14
2019-02-17T09:09:13.707Z,100285.16
2019-02-17T09:11:46.140Z,100290.05
2019-02-17T09:14:18.537Z,100290.37
2019-02-17T09:16:50.967Z,100289.34
2019-02-17T09:19:23.430Z,100292.74
2019-02-17T09:21:55.836Z,100288.09
2019-02-17T09:24:28.263Z,100283.33
2019-02-17T09:27:00.778Z,100285.09
2019-02-17T09:29:33.170Z,100285.81
2019-02-17T09:32:15.737Z,100285.48
2019-02-17T09:34:39.681Z,100283.25
2019-02-17T09:37:12.103Z,100279.88
2019-02-17T09:39:44.523Z,100276.94
2019-02-17T09:42:16.997Z,100276.66
2019-02-17T09:44:49.395Z,100276.98
2019-02-17T09:47:21.821Z,100275.05
2019-02-17T09:49:54.218Z,100271.70
2019-02-17T09:52:26.631Z,100273.54
2019-02-17T09:54:59.028Z,100271.15
2019-02-17T09:57:31.439Z,100271.88
2019-02-17T10:00:04.079Z,100269.44
2019-02-17T10:02:36.505Z,100264.95
2019-02-17T10:05:09.075Z,100264.45
2019-02-17T10:07:41.611Z,100263.33
2019-02-17T10:10:14.990Z,100258.70
2019-02-17T10:12:47.799Z,100256.52
2019-02-17T10:15:20.456Z,100249.56
2019-02-17T10:17:52.872Z,100246.84
2019-02-17T10:20:25.260Z,100247.72
2019-02-17T10:22:57.693Z,100240.13
2019-02-17T10:25:30.086Z,100239.80
2019-02-17T10:28:02.509Z,100237.75
2019-02-17T10:30:36.006Z,100233.15
2019-02-17T10:33:08.513Z,100238.23
2019-02-17T10:35:40.902Z,100239.61
2019-02-17T10:38:13.318Z,100235.31
2019-02-17T10:40:45.739Z,100232.14
2019-02-17T10:43:18.177Z,100229.31
2019-02-17T10:45:50.544Z,100229.57
2019-02-17T10:48:22.954Z,100225.06
2019-02-17T10:50:55.354Z,100217.73
2019-02-17T10:53:27.757Z,100214.88
2019-02-17T10:56:00.151Z,100219.55
2019-02-17T10:58:32.569Z,100211.23
2019-02-17T11:01:05.075Z,100211.09
2019-02-17T11:03:37.488Z,100209.19
2019-02-17T11:06:09.885Z,100205.45
2019-02-17T11:08:42.303Z,100209.68
2019-02-17T11:11:14.701Z,100204.13
2019-02-17T11:13:47.132Z,100198.33
2019-02-17T11:16:19.539Z,100196.91
2019-02-17T11:18:52.032Z,100195.08
2019-02-17T11:21:24.453Z,100194.73
2019-02-17T11:23:56.972Z,100186.79
2019-02-17T11:26:29.378Z,100181.48
2019-02-17T11:29:01.799Z,100176.20
2019-02-17T11:31:34.193Z,100171.52
2019-02-17T11:34:06.630Z,100168.89
2019-02-17T11:36:39.023Z,100166.95
2019-02-17T11:39:21.083Z,100159.42
2019-02-17T11:41:53.480Z,100155.29
2019-02-17T11:44:25.901Z,100152.94
2019-02-17T11:46:58.287Z,100150.77
2019-02-17T11:49:30.717Z,100146.82
2019-02-17T11:52:03.120Z,100146.06
2019-02-17T11:54:35.546Z,100146.60
2019-02-17T11:57:07.939Z,100144.11
2019-02-17T11:59:40.369Z,100142.27
2019-02-17T12:02:12.692Z,100138.30
2019-02-17T12:04:45.103Z,100132.05
2019-02-17T12:07:17.489Z,100133.64
2019-02-17T12:09:49.904Z,100124.95
2019-02-17T12:12:22.292Z,100120.84
2019-02-17T12:14:54.747Z,100115.97
2019-02-17T12:17:27.136Z,100113.93
2019-02-17T12:20:14.306Z,100109.41
2019-02-17T12:22:51.058Z,100107.56
2019-02-17T12:25:28.681Z,100104.10
2019-02-17T12:28:07.679Z,100098.09
2019-02-17T12:30:41.365Z,100100.62
2019-02-17T12:33:19.346Z,100095.82
2019-02-17T12:35:48.004Z,100095.33
2019-02-17T12:38:20.444Z,100087.13
2019-02-17T12:40:52.873Z,100084.69
2019-02-17T12:43:25.274Z,100084.51
2019-02-17T12:45:57.692Z,100075.92
2019-02-17T12:48:30.075Z,100070.50
2019-02-17T12:51:03.564Z,100069.49
2019-02-17T12:53:35.963Z,100070.20
2019-02-17T12:56:08.390Z,100069.91
2019-02-17T12:58:40.780Z,100063.93
2019-02-17T13:01:13.627Z,100064.33
2019-02-17T13:03:46.085Z,100066.02
2019-02-17T13:06:18.509Z,100061.47
2019-02-17T13:08:50.925Z,100061.33
2019-02-17T13:11:23.339Z,100053.87
2019-02-17T13:13:55.745Z,100050.03
2019-02-17T13:16:28.159Z,100046.57
2019-02-17T13:19:00.508Z,100047.70
2019-02-17T13:21:32.927Z,100046.92
2019-02-17T13:24:05.343Z,100047.63
2019-02-17T13:26:37.753Z,100043.14
2019-02-17T13:29:10.148Z,100037.05
2019-02-17T13:31:42.557Z,100038.70
2019-02-17T13:34:14.941Z,100037.17
2019-02-17T13:36:47.355Z,100033.31
2019-02-17T13:39:19.743Z,100027.92
2019-02-17T13:41:52.149Z,100025.11
2019-02-17T13:44:24.525Z,100021.15
2019-02-17T13:46:56.942Z,100021.20
2019-02-17T13:49:29.326Z,100017.83
2019-02-17T13:52:01.738Z,100018.97
2019-02-17T13:54:34.120Z,100015.86
2019-02-17T13:57:06.541Z,100015.71
2019-02-17T13:59:38.927Z,100019.14
2019-02-17T14:02:11.331Z,100011.22
2019-02-17T14:04:43.824Z,100013.57
2019-02-17T14:07:16.235Z,100010.97
2019-02-17T14:09:48.617Z,100004.58
2019-02-17T14:12:21.037Z,100003.97
2019-02-17T14:14:53.442Z,100002.05
2019-02-17T14:17:25.862Z,99998.86
2019-02-17T14:19:58.238Z,99992.52
2019-02-17T14:22:30.648Z,99989.23
2019-02-17T14:25:03.071Z,99995.66
2019-02-17T14:27:35.475Z,99986.42
2019-02-17T14:30:10.043Z,99984.49
2019-02-17T14:32:42.393Z,99983.17
2019-02-17T14:35:14.830Z,99982.63
2019-02-17T14:37:47.218Z,99978.30
2019-02-17T14:40:19.598Z,99974.31
2019-02-17T14:42:52.074Z,99973.88
2019-02-17T14:45:24.462Z,99965.17
2019-02-17T14:47:56.869Z,99968.00
2019-02-17T14:50:29.243Z,99971.05
2019-02-17T14:53:01.659Z,99970.58
2019-02-17T14:55:34.039Z,99968.65
2019-02-17T14:58:06.450Z,99962.99
2019-02-17T15:00:38.930Z,99961.20
2019-02-17T15:03:11.262Z,99970.56
2019-02-17T15:05:43.638Z,99956.84
2019-02-17T15:08:16.033Z,99949.79
2019-02-17T15:10:48.409Z,99952.31
2019-02-17T15:13:24.540Z,99957.05
2019-02-17T15:15:54.875Z,99946.53
2019-02-17T15:18:27.269Z,99949.69
2019-02-17T15:20:59.656Z,99949.63
2019-02-17T15:23:32.055Z,99944.28
2019-02-17T15:26:04.451Z,99942.69
2019-02-17T15:28:36.851Z,99943.13
2019-02-17T15:31:09.240Z,99942.80
2019-02-17T15:33:41.633Z,99944.88
2019-02-17T15:36:14.009Z,99942.05
2019-02-17T15:38:46.399Z,99941.77
2019-02-17T15:41:18.771Z,99943.70
2019-02-17T15:43:51.165Z,99933.06
2019-02-17T15:46:23.539Z,99933.45
2019-02-17T15:48:55.937Z,99936.23
2019-02-17T15:51:28.324Z,99934.42
2019-02-17T15:54:00.725Z,99931.14
2019-02-17T15:56:33.101Z,99924.05
2019-02-17T15:59:05.503Z,99930.06
2019-02-17T16:01:37.887Z,99923.24
2019-02-17T16:04:10.368Z,99924.31
2019-02-17T16:06:42.743Z,99922.11
2019-02-17T16:09:15.138Z,99921.56
2019-02-17T16:11:47.518Z,99918.53
2019-02-17T16:14:19.921Z,99921.72
2019-02-17T16:16:52.290Z,99921.39
2019-02-17T16:19:24.695Z,99919.48
2019-02-17T16:21:57.078Z,99921.61
2019-02-17T16:24:29.799Z,99923.66
2019-02-17T16:27:02.173Z,99923.67
2019-02-17T16:29:34.599Z,99926.69
2019-02-17T16:32:06.966Z,99925.30
2019-02-17T16:34:39.369Z,99926.83
2019-02-17T16:37:11.745Z,99918.83
2019-02-17T16:39:44.155Z,99920.90
2019-02-17T16:42:16.492Z,99917.09
2019-02-17T16:44:48.884Z,99921.41
2019-02-17T16:47:21.259Z,99921.97
2019-02-17T16:49:53.723Z,99923.50
2019-02-17T16:52:26.303Z,99923.91
2019-02-17T16:54:58.840Z,99920.59
2019-02-17T16:57:31.220Z,99921.80
2019-02-17T17:00:03.656Z,99916.67
2019-02-17T17:02:36.133Z,99917.44
2019-02-17T17:05:10.116Z,99925.11
2019-02-17T17:07:42.596Z,99921.45
2019-02-17T17:10:15.149Z,99923.98
2019-02-17T17:12:47.594Z,99923.16
2019-02-17T17:15:19.993Z,99923.20
2019-02-17T17:17:52.369Z,99922.86
2019-02-17T17:20:24.769Z,99929.34
2019-02-17T17:22:57.314Z,99922.93
2019-02-17T17:25:29.756Z,99930.65
2019-02-17T17:28:02.122Z,99934.92
2019-02-17T17:30:35.737Z,99935.23
2019-02-17T17:33:08.186Z,99937.75
2019-02-17T17:35:40.700Z,99943.27
2019-02-17T17:38:13.105Z,99941.09
2019-02-17T17:40:45.560Z,99939.77
2019-02-17T17:43:17.934Z,99940.23
2019-02-17T17:45:51.984Z,99946.80
2019-02-17T17:48:24.633Z,99945.84
2019-02-17T17:50:57.045Z,99945.41
2019-02-17T17:53:29.425Z,99948.48
2019-02-17T17:56:01.821Z,99945.80
2019-02-17T17:58:34.468Z,99950.09
2019-02-17T18:01:07.863Z,99945.41
2019-02-17T18:03:40.477Z,99951.06
2019-02-17T18:06:12.886Z,99946.41
2019-02-17T18:08:45.268Z,99951.10
2019-02-17T18:11:17.680Z,99949.33
2019-02-17T18:13:50.057Z,99949.31
2019-02-17T18:16:22.455Z,99952.86
2019-02-17T18:18:54.847Z,99956.05
2019-02-17T18:21:27.322Z,99954.81
2019-02-17T18:23:59.812Z,99960.97
2019-02-17T18:26:32.209Z,99965.58
2019-02-17T18:29:04.670Z,99963.13
2019-02-17T18:31:39.796Z,99963.48
2019-02-17T18:34:12.186Z,99959.02
2019-02-17T18:36:44.603Z,99968.60
2019-02-17T18:39:16.984Z,99968.00
2019-02-17T18:41:49.430Z,99973.29
2019-02-17T18:44:21.823Z,99971.88
2019-02-17T18:46:54.269Z,99977.41
2019-02-17T18:49:26.656Z,99967.64
2019-02-17T18:51:59.143Z,99971.03
2019-02-17T18:54:31.567Z,99971.36
2019-02-17T18:57:08.226Z,99975.60
2019-02-17T18:59:38.061Z,99975.12
2019-02-17T19:02:10.471Z,99976.49
2019-02-17T19:04:42.996Z,99979.03
2019-02-17T19:07:15.443Z,99979.11
2019-02-17T19:09:48.044Z,99980.73
2019-02-17T19:12:20.355Z,99981.80
2019-02-17T19:14:52.740Z,99985.65
2019-02-17T19:17:26.530Z,99991.39
2019-02-17T19:19:58.915Z,99988.70
2019-02-17T19:22:32.827Z,99988.09
2019-02-17T19:25:05.682Z,99985.78
2019-02-17T19:27:38.097Z,99986.45
2019-02-17T19:30:12.667Z,99986.63
2019-02-17T19:32:46.259Z,99984.80
2019-02-17T19:35:18.664Z,99986.08
2019-02-17T19:37:51.077Z,99990.18
2019-02-17T19:40:23.479Z,99993.30
2019-02-17T19:42:55.884Z,99996.95
2019-02-17T19:45:28.254Z,99996.08
2019-02-17T19:48:00.671Z,99997.92
2019-02-17T19:50:33.069Z,99998.39
2019-02-17T19:53:06.548Z,99992.84
2019-02-17T19:55:38.937Z,99995.39
2019-02-17T19:58:11.355Z,99994.90
2019-02-17T20:00:43.737Z,99990.20
2019-02-17T20:03:35.780Z,99991.59
2019-02-17T20:06:08.187Z,99996.67
2019-02-17T20:08:40.525Z,99997.23
2019-02-17T20:11:12.913Z,99995.89
2019-02-17T20:13:45.323Z,99996.11
2019-02-17T20:16:17.699Z,99994.84
2019-02-17T20:18:50.192Z,99997.05
2019-02-17T20:21:22.605Z,100001.60
2019-02-17T20:23:55.231Z,100003.41
2019-02-17T20:26:27.639Z,100006.20
2019-02-17T20:29:00.067Z,100005.80
2019-02-17T20:31:32.503Z,100004.12
2019-02-17T20:34:05.986Z,100006.58
2019-02-17T20:36:38.383Z,100005.06
2019-02-17T20:39:10.844Z,100004.00
2019-02-17T20:41:43.233Z,100002.08
2019-02-17T20:44:15.659Z,100005.34
2019-02-17T20:46:48.057Z,99998.17
2019-02-17T20:49:20.465Z,99999.84
2019-02-17T20:51:52.850Z,99996.59
2019-02-17T20:54:25.307Z,100009.44
2019-02-17T20:56:57.733Z,100003.33
2019-02-17T20:59:30.141Z,99999.56
2019-02-17T21:02:02.529Z,99997.41
2019-02-17T21:04:34.955Z,99989.80
2019-02-17T21:07:07.345Z,99995.19
2019-02-17T21:09:39.790Z,99995.03
2019-02-17T21:12:12.209Z,99991.00
2019-02-17T21:14:44.617Z,99992.48
2019-02-17T21:17:17.040Z,99987.59
2019-02-17T21:19:49.481Z,99984.79
2019-02-17T21:22:21.879Z,99991.08
2019-02-17T21:24:54.394Z,99991.59
2019-02-17T21:27:26.900Z,99984.99
2019-02-17T21:29:59.335Z,99982.05
2019-02-17T21:32:31.731Z,99981.83
2019-02-17T21:35:04.440Z,99978.79
2019-02-17T21:37:36.898Z,99981.41
2019-02-17T21:40:10.681Z,99976.63
2019-02-17T21:42:43.083Z,99981.22
2019-02-17T21:45:15.515Z,99985.30
2019-02-17T21:47:47.897Z,99978.12
2019-02-17T21:50:20.318Z,99983.95
2019-02-17T21:52:52.779Z,99985.53
2019-02-17T21:55:25.224Z,99983.36
2019-02-17T21:57:57.675Z,99979.77
2019-02-17T22:00:30.181Z,99983.67
2019-02-17T22:03:02.569Z,99985.41
2019-02-17T22:05:35.047Z,99978.08
2019-02-17T22:08:08.293Z,99984.28
2019-02-17T22:10:40.705Z,99977.66
2019-02-17T22:13:13.181Z,99978.68
2019-02-17T22:15:45.527Z,99979.16
2019-02-17T22:18:17.928Z,99977.86
2019-02-17T22:20:50.350Z,99974.79
2019-02-17T22:23:22.735Z,99974.97
2019-02-17T22:25:55.242Z,99974.78
2019-02-17T22:28:27.702Z,99964.10
2019-02-17T22:31:00.206Z,99963.00
2019-02-17T22:33:32.605Z,99960.61
2019-02-17T22:36:05.024Z,99963.63
2019-02-17T22:38:37.407Z,99960.91
2019-02-17T22:41:09.834Z,99964.73
2019-02-17T22:43:42.281Z,99964.41
2019-02-17T22:46:14.693Z,99964.22
2019-02-17T22:48:47.067Z,99965.55
2019-02-17T22:51:19.543Z,99971.51
2019-02-17T22:53:51.939Z,99971.28
2019-02-17T22:56:24.360Z,99972.97
2019-02-17T22:58:56.759Z,99973.77
2019-02-17T23:01:32.065Z,99974.88
2019-02-17T23:04:04.521Z,99976.52
2019-02-17T23:06:37.004Z,99980.28
2019-02-17T23:09:09.531Z,99979.62
2019-02-17T23:11:42.204Z,99981.98
2019-02-17T23:14:14.670Z,99977.38
2019-02-17T23:16:47.083Z,99977.62
2019-02-17T23:19:19.484Z,99986.66
2019-02-17T23:21:51.962Z,99980.59
2019-02-17T23:24:24.396Z,99988.33
2019-02-17T23:26:56.807Z,99984.11
2019-02-17T23:29:29.226Z,99982.91
2019-02-17T23:32:01.633Z,99987.94
2019-02-17T23:34:34.018Z,99989.50
2019-02-17T23:37:06.435Z,99992.28
2019-02-17T23:39:38.807Z,99992.08
2019-02-17T23:42:11.214Z,99990.59
2019-02-17T23:44:43.593Z,99995.56
2019-02-17T23:47:16.021Z,99997.09
2019-02-17T23:49:48.425Z,99994.14
2019-02-17T23:52:20.763Z,99994.91
2019-02-17T23:54:53.149Z,99992.73
2019-02-17T23:57:25.960Z,99989.81
2019-02-17T23:59:59.417Z,99987.79
